sensor_id;sensor_type;location;lat;lon;timestamp;pressure;altitude;pressure_sealevel;temperature;humidity
7824;BME280;3957;48.61947800;9.05303100;2023-04-19T00:00:07;96541.91;;;7.36;100.00
7824;BME280;3957;48.61947800;9.05303100;2023-04-19T00:01:10;96543.94;;;7.34;100.00
7824;BME280;3957;48.61947800;9.05303100;2023-04-19T00:02:12;96542.63;;;7.29;100.00
7824;BME280;3957;48.61947800;9.05303100;2023-04-19T00:03:14;96542.13;;;7.26;100.00
7824;BME280;3957;48.61947800;9.05303100;2023-04-19T00:04:16;96544.97;;;7.24;100.00
7824;BME280;3957;48.61947800;9.05303100;2023-04-19T00:05:18;96535.44;;;7.30;100.00
7824;BME280;3957;48.61947800;9.05303100;2023-04-19T00:06:22;96539.44;;;7.34;100.00
7824;BME280;3957;48.61947800;9.05303100;2023-04-19T00:07:25;96537.25;;;7.38;100.00
7824;BME280;3957;48.61947800;9.05303100;2023-04-19T00:08:27;96542.59;;;7.38;100.00
7824;BME280;3957;48.61947800;9.05303100;2023-04-19T00:09:29;96542.88;;;7.43;100.00
7824;BME280;3957;48.61947800;9.05303100;2023-04-19T00:10:31;96538.38;;;7.52;100.00
7824;BME280;3957;48.61947800;9.05303100;2023-04-19T00:11:32;96539.91;;;7.46;100.00
7824;BME280;3957;48.61947800;9.05303100;2023-04-19T00:12:34;96539.06;;;7.37;100.00
7824;BME280;3957;48.61947800;9.05303100;2023-04-19T00:13:35;96537.19;;;7.54;100.00
7824;BME280;3957;48.61947800;9.05303100;2023-04-19T00:14:37;96545.41;;;7.44;100.00
7824;BME280;3957;48.61947800;9.05303100;2023-04-19T00:15:38;96542.41;;;7.39;100.00
7824;BME280;3957;48.61947800;9.05303100;2023-04-19T00:16:40;96544.56;;;7.36;100.00
7824;BME280;3957;48.61947800;9.05303100;2023-04-19T00:17:42;96536.75;;;7.34;100.00
7824;BME280;3957;48.61947800;9.05303100;2023-04-19T00:18:44;96533.47;;;7.32;100.00
7824;BME280;3957;48.61947800;9.05303100;2023-04-19T00:19:47;96535.13;;;7.25;100.00
7824;BME280;3957;48.61947800;9.05303100;2023-04-19T00:20:48;96530.81;;;7.24;100.00
7824;BME280;3957;48.61947800;9.05303100;2023-04-19T00:21:50;96536.63;;;7.27;100.00
7824;BME280;3957;48.61947800;9.05303100;2023-04-19T00:22:51;96531.81;;;7.23;100.00
7824;BME280;3957;48.61947800;9.05303100;2023-04-19T00:23:53;96534.94;;;7.26;100.00
7824;BME280;3957;48.61947800;9.05303100;2023-04-19T00:24:54;96533.31;;;7.25;100.00
7824;BME280;3957;48.61947800;9.05303100;2023-04-19T00:25:56;96533.94;;;7.36;100.00
7824;BME280;3957;48.61947800;9.05303100;2023-04-19T00:26:57;96533.94;;;7.36;100.00
7824;BME280;3957;48.61947800;9.05303100;2023-04-19T00:27:59;96533.47;;;7.32;100.00
7824;BME280;3957;48.61947800;9.05303100;2023-04-19T00:29:01;96535.81;;;7.27;100.00
7824;BME280;3957;48.61947800;9.05303100;2023-04-19T00:30:02;96533.50;;;7.24;100.00
7824;BME280;3957;48.61947800;9.05303100;2023-04-19T00:31:04;96542.28;;;7.24;100.00
7824;BME280;3957;48.61947800;9.05303100;2023-04-19T00:32:06;96528.16;;;7.24;100.00
7824;BME280;3957;48.61947800;9.05303100;2023-04-19T00:33:07;96540.13;;;7.28;100.00
7824;BME280;3957;48.61947800;9.05303100;2023-04-19T00:34:13;96531.25;;;7.36;100.00
7824;BME280;3957;48.61947800;9.05303100;2023-04-19T00:35:15;96525.25;;;7.42;100.00
7824;BME280;3957;48.61947800;9.05303100;2023-04-19T00:36:17;96530.81;;;7.32;100.00
7824;BME280;3957;48.61947800;9.05303100;2023-04-19T00:37:20;96527.78;;;7.35;100.00
7824;BME280;3957;48.61947800;9.05303100;2023-04-19T00:38:22;96525.13;;;7.35;100.00
7824;BME280;3957;48.61947800;9.05303100;2023-04-19T00:39:23;96527.47;;;7.30;100.00
7824;BME280;3957;48.61947800;9.05303100;2023-04-19T00:40:25;96522.66;;;7.25;100.00
7824;BME280;3957;48.61947800;9.05303100;2023-04-19T00:41:26;96528.97;;;7.24;100.00
7824;BME280;3957;48.61947800;9.05303100;2023-04-19T00:42:28;96529.34;;;7.21;100.00
7824;BME280;3957;48.61947800;9.05303100;2023-04-19T00:43:29;96516.66;;;7.23;100.00
7824;BME280;3957;48.61947800;9.05303100;2023-04-19T00:44:31;96529.69;;;7.18;100.00
7824;BME280;3957;48.61947800;9.05303100;2023-04-19T00:45:34;96523.03;;;7.22;100.00
7824;BME280;3957;48.61947800;9.05303100;2023-04-19T00:46:36;96525.13;;;7.35;100.00
7824;BME280;3957;48.61947800;9.05303100;2023-04-19T00:47:38;96522.66;;;7.25;100.00
7824;BME280;3957;48.61947800;9.05303100;2023-04-19T00:48:40;96519.31;;;7.31;100.00
7824;BME280;3957;48.61947800;9.05303100;2023-04-19T00:49:42;96517.00;;;7.28;100.00
7824;BME280;3957;48.61947800;9.05303100;2023-04-19T00:50:43;96512.03;;;7.25;100.00
7824;BME280;3957;48.61947800;9.05303100;2023-04-19T00:51:45;96508.84;;;7.22;100.00
7824;BME280;3957;48.61947800;9.05303100;2023-04-19T00:52:48;96513.53;;;7.20;100.00
7824;BME280;3957;48.61947800;9.05303100;2023-04-19T00:53:50;96516.16;;;7.28;100.00
7824;BME280;3957;48.61947800;9.05303100;2023-04-19T00:54:52;96514.19;;;7.22;100.00
7824;BME280;3957;48.61947800;9.05303100;2023-04-19T00:55:56;96507.88;;;7.23;100.00
7824;BME280;3957;48.61947800;9.05303100;2023-04-19T00:56:58;96507.06;;;7.14;100.00
7824;BME280;3957;48.61947800;9.05303100;2023-04-19T00:57:59;96515.88;;;7.14;100.00
7824;BME280;3957;48.61947800;9.05303100;2023-04-19T00:59:01;96514.06;;;7.07;100.00
7824;BME280;3957;48.61947800;9.05303100;2023-04-19T01:00:04;96518.06;;;7.03;100.00
7824;BME280;3957;48.61947800;9.05303100;2023-04-19T01:01:07;96523.22;;;7.04;100.00
7824;BME280;3957;48.61947800;9.05303100;2023-04-19T01:02:09;96520.69;;;7.11;100.00
7824;BME280;3957;48.61947800;9.05303100;2023-04-19T01:03:11;96513.06;;;7.08;100.00
7824;BME280;3957;48.61947800;9.05303100;2023-04-19T01:04:14;96508.41;;;7.10;100.00
7824;BME280;3957;48.61947800;9.05303100;2023-04-19T01:05:17;96513.75;;;7.10;100.00
7824;BME280;3957;48.61947800;9.05303100;2023-04-19T01:06:18;96521.06;;;7.08;100.00
7824;BME280;3957;48.61947800;9.05303100;2023-04-19T01:07:21;96519.09;;;7.02;100.00
7824;BME280;3957;48.61947800;9.05303100;2023-04-19T01:08:23;96512.75;;;7.03;100.00
7824;BME280;3957;48.61947800;9.05303100;2023-04-19T01:09:27;96521.72;;;7.10;100.00
7824;BME280;3957;48.61947800;9.05303100;2023-04-19T01:10:31;96511.09;;;7.10;100.00
7824;BME280;3957;48.61947800;9.05303100;2023-04-19T01:11:32;96512.41;;;7.14;100.00
7824;BME280;3957;48.61947800;9.05303100;2023-04-19T01:12:34;96513.41;;;7.13;100.00
7824;BME280;3957;48.61947800;9.05303100;2023-04-19T01:13:37;96516.53;;;7.17;100.00
7824;BME280;3957;48.61947800;9.05303100;2023-04-19T01:14:39;96512.41;;;7.14;100.00
7824;BME280;3957;48.61947800;9.05303100;2023-04-19T01:15:40;96513.03;;;7.16;100.00
7824;BME280;3957;48.61947800;9.05303100;2023-04-19T01:16:42;96509.25;;;7.10;100.00
7824;BME280;3957;48.61947800;9.05303100;2023-04-19T01:17:44;96512.25;;;7.07;100.00
7824;BME280;3957;48.61947800;9.05303100;2023-04-19T01:18:46;96513.75;;;7.02;100.00
7824;BME280;3957;48.61947800;9.05303100;2023-04-19T01:19:48;96510.44;;;7.00;100.00
7824;BME280;3957;48.61947800;9.05303100;2023-04-19T01:20:50;96512.28;;;6.99;100.00
7824;BME280;3957;48.61947800;9.05303100;2023-04-19T01:21:52;96506.94;;;6.99;100.00
7824;BME280;3957;48.61947800;9.05303100;2023-04-19T01:22:53;96507.13;;;6.97;100.00
7824;BME280;3957;48.61947800;9.05303100;2023-04-19T01:23:55;96504.13;;;7.01;100.00
7824;BME280;3957;48.61947800;9.05303100;2023-04-19T01:24:56;96505.88;;;7.17;100.00
7824;BME280;3957;48.61947800;9.05303100;2023-04-19T01:26:00;96507.91;;;7.06;100.00
7824;BME280;3957;48.61947800;9.05303100;2023-04-19T01:27:02;96507.41;;;7.03;100.00
7824;BME280;3957;48.61947800;9.05303100;2023-04-19T01:28:03;96504.44;;;7.06;100.00
7824;BME280;3957;48.61947800;9.05303100;2023-04-19T01:29:05;96502.59;;;7.06;100.00
7824;BME280;3957;48.61947800;9.05303100;2023-04-19T01:30:07;96502.94;;;7.03;100.00
7824;BME280;3957;48.61947800;9.05303100;2023-04-19T01:31:09;96497.44;;;7.05;100.00
7824;BME280;3957;48.61947800;9.05303100;2023-04-19T01:32:11;96496.94;;;7.01;100.00
7824;BME280;3957;48.61947800;9.05303100;2023-04-19T01:33:14;96499.13;;;7.06;100.00
7824;BME280;3957;48.61947800;9.05303100;2023-04-19T01:34:16;96494.44;;;7.08;100.00
7824;BME280;3957;48.61947800;9.05303100;2023-04-19T01:35:17;96495.78;;;7.04;100.00
7824;BME280;3957;48.61947800;9.05303100;2023-04-19T01:36:19;96499.97;;;6.98;100.00
7824;BME280;3957;48.61947800;9.05303100;2023-04-19T01:37:20;96494.47;;;7.00;100.00
7824;BME280;3957;48.61947800;9.05303100;2023-04-19T01:38:22;96496.47;;;6.97;100.00
7824;BME280;3957;48.61947800;9.05303100;2023-04-19T01:39:24;96492.31;;;7.03;100.00
7824;BME280;3957;48.61947800;9.05303100;2023-04-19T01:40:26;96488.97;;;7.01;100.00
7824;BME280;3957;48.61947800;9.05303100;2023-04-19T01:41:28;96489.66;;;7.03;100.00
7824;BME280;3957;48.61947800;9.05303100;2023-04-19T01:42:30;96488.16;;;7.01;100.00
7824;BME280;3957;48.61947800;9.05303100;2023-04-19T01:43:33;96485.00;;;6.97;100.00
7824;BME280;3957;48.61947800;9.05303100;2023-04-19T01:44:35;96485.84;;;6.97;100.00
7824;BME280;3957;48.61947800;9.05303100;2023-04-19T01:45:36;96483.31;;;7.04;100.00
7824;BME280;3957;48.61947800;9.05303100;2023-04-19T01:46:38;96483.69;;;6.93;100.00
7824;BME280;3957;48.61947800;9.05303100;2023-04-19T01:47:43;96489.00;;;6.93;100.00
7824;BME280;3957;48.61947800;9.05303100;2023-04-19T01:48:44;96486.34;;;6.93;100.00
7824;BME280;3957;48.61947800;9.05303100;2023-04-19T01:49:46;96478.88;;;6.88;100.00
7824;BME280;3957;48.61947800;9.05303100;2023-04-19T01:50:49;96476.84;;;6.90;100.00
7824;BME280;3957;48.61947800;9.05303100;2023-04-19T01:51:50;96478.53;;;6.91;100.00
7824;BME280;3957;48.61947800;9.05303100;2023-04-19T01:52:54;96482.66;;;7.02;100.00
7824;BME280;3957;48.61947800;9.05303100;2023-04-19T01:53:55;96487.31;;;7.00;100.00
7824;BME280;3957;48.61947800;9.05303100;2023-04-19T01:54:58;96485.00;;;6.89;100.00
7824;BME280;3957;48.61947800;9.05303100;2023-04-19T01:55:59;96480.66;;;6.96;100.00
7824;BME280;3957;48.61947800;9.05303100;2023-04-19T01:57:01;96483.03;;;6.91;100.00
7824;BME280;3957;48.61947800;9.05303100;2023-04-19T01:58:03;96483.22;;;6.89;100.00
7824;BME280;3957;48.61947800;9.05303100;2023-04-19T01:59:04;96484.19;;;6.88;100.00
7824;BME280;3957;48.61947800;9.05303100;2023-04-19T02:00:06;96477.03;;;6.89;100.00
7824;BME280;3957;48.61947800;9.05303100;2023-04-19T02:01:14;96481.72;;;6.87;100.00
7824;BME280;3957;48.61947800;9.05303100;2023-04-19T02:02:16;96478.38;;;6.85;100.00
7824;BME280;3957;48.61947800;9.05303100;2023-04-19T02:03:17;96475.41;;;6.88;100.00
7824;BME280;3957;48.61947800;9.05303100;2023-04-19T02:04:19;96473.22;;;6.91;100.00
7824;BME280;3957;48.61947800;9.05303100;2023-04-19T02:05:22;96476.84;;;6.90;100.00
7824;BME280;3957;48.61947800;9.05303100;2023-04-19T02:06:24;96472.06;;;6.86;100.00
7824;BME280;3957;48.61947800;9.05303100;2023-04-19T02:07:27;96476.53;;;6.93;100.00
7824;BME280;3957;48.61947800;9.05303100;2023-04-19T02:08:31;96479.69;;;6.89;100.00
7824;BME280;3957;48.61947800;9.05303100;2023-04-19T02:09:35;96473.56;;;6.88;100.00
7824;BME280;3957;48.61947800;9.05303100;2023-04-19T02:10:37;96468.59;;;6.85;100.00
7824;BME280;3957;48.61947800;9.05303100;2023-04-19T02:11:39;96471.72;;;6.89;100.00
7824;BME280;3957;48.61947800;9.05303100;2023-04-19T02:12:41;96470.56;;;6.83;100.00
7824;BME280;3957;48.61947800;9.05303100;2023-04-19T02:13:43;96467.56;;;6.86;100.00
7824;BME280;3957;48.61947800;9.05303100;2023-04-19T02:14:44;96467.72;;;6.93;100.00
7824;BME280;3957;48.61947800;9.05303100;2023-04-19T02:15:46;96469.56;;;6.92;100.00
7824;BME280;3957;48.61947800;9.05303100;2023-04-19T02:16:47;96464.88;;;6.94;100.00
7824;BME280;3957;48.61947800;9.05303100;2023-04-19T02:17:49;96467.88;;;6.91;100.00
7824;BME280;3957;48.61947800;9.05303100;2023-04-19T02:18:52;96461.25;;;6.87;100.00
7824;BME280;3957;48.61947800;9.05303100;2023-04-19T02:19:54;96460.44;;;6.87;100.00
7824;BME280;3957;48.61947800;9.05303100;2023-04-19T02:20:56;96462.91;;;6.88;100.00
7824;BME280;3957;48.61947800;9.05303100;2023-04-19T02:21:57;96459.94;;;6.83;100.00
7824;BME280;3957;48.61947800;9.05303100;2023-04-19T02:22:59;96457.94;;;6.85;100.00
7824;BME280;3957;48.61947800;9.05303100;2023-04-19T02:24:01;96457.59;;;6.88;100.00
7824;BME280;3957;48.61947800;9.05303100;2023-04-19T02:25:03;96452.78;;;6.92;100.00
7824;BME280;3957;48.61947800;9.05303100;2023-04-19T02:26:05;96454.44;;;6.85;100.00
7824;BME280;3957;48.61947800;9.05303100;2023-04-19T02:27:08;96453.97;;;6.81;100.00
7824;BME280;3957;48.61947800;9.05303100;2023-04-19T02:28:09;96446.31;;;6.78;100.00
7824;BME280;3957;48.61947800;9.05303100;2023-04-19T02:29:11;96457.78;;;6.87;100.00
7824;BME280;3957;48.61947800;9.05303100;2023-04-19T02:30:12;96446.97;;;6.88;100.00
7824;BME280;3957;48.61947800;9.05303100;2023-04-19T02:31:14;96442.97;;;6.84;100.00
7824;BME280;3957;48.61947800;9.05303100;2023-04-19T02:32:16;96452.63;;;6.85;100.00
7824;BME280;3957;48.61947800;9.05303100;2023-04-19T02:33:17;96446.00;;;6.81;100.00
7824;BME280;3957;48.61947800;9.05303100;2023-04-19T02:34:19;96448.94;;;6.86;100.00
7824;BME280;3957;48.61947800;9.05303100;2023-04-19T02:35:20;96445.81;;;6.83;100.00
7824;BME280;3957;48.61947800;9.05303100;2023-04-19T02:36:22;96439.34;;;6.77;100.00
7824;BME280;3957;48.61947800;9.05303100;2023-04-19T02:37:23;96442.66;;;6.79;100.00
7824;BME280;3957;48.61947800;9.05303100;2023-04-19T02:38:25;96436.50;;;6.78;100.00
7824;BME280;3957;48.61947800;9.05303100;2023-04-19T02:39:27;96440.50;;;6.83;100.00
7824;BME280;3957;48.61947800;9.05303100;2023-04-19T02:40:29;96440.16;;;6.77;100.00
7824;BME280;3957;48.61947800;9.05303100;2023-04-19T02:41:32;96437.50;;;6.77;100.00
7824;BME280;3957;48.61947800;9.05303100;2023-04-19T02:42:35;96436.03;;;6.75;100.00
7824;BME280;3957;48.61947800;9.05303100;2023-04-19T02:43:38;96439.50;;;6.84;100.00
7824;BME280;3957;48.61947800;9.05303100;2023-04-19T02:44:40;96438.00;;;6.81;100.00
7824;BME280;3957;48.61947800;9.05303100;2023-04-19T02:45:41;96442.97;;;6.84;100.00
7824;BME280;3957;48.61947800;9.05303100;2023-04-19T02:46:52;96438.44;;;6.93;100.00
7824;BME280;3957;48.61947800;9.05303100;2023-04-19T02:47:54;96431.00;;;6.88;100.00
7824;BME280;3957;48.61947800;9.05303100;2023-04-19T02:48:59;96434.16;;;6.92;100.00
7824;BME280;3957;48.61947800;9.05303100;2023-04-19T02:50:01;96436.00;;;6.83;100.00
7824;BME280;3957;48.61947800;9.05303100;2023-04-19T02:51:05;96430.31;;;6.86;100.00
7824;BME280;3957;48.61947800;9.05303100;2023-04-19T02:52:07;96435.63;;;6.86;100.00
7824;BME280;3957;48.61947800;9.05303100;2023-04-19T02:53:11;96439.00;;;6.80;100.00
7824;BME280;3957;48.61947800;9.05303100;2023-04-19T02:54:13;96437.00;;;6.74;100.00
7824;BME280;3957;48.61947800;9.05303100;2023-04-19T02:55:18;96433.84;;;6.78;100.00
7824;BME280;3957;48.61947800;9.05303100;2023-04-19T02:56:22;96432.72;;;6.73;100.00
7824;BME280;3957;48.61947800;9.05303100;2023-04-19T02:57:24;96431.56;;;6.75;100.00
7824;BME280;3957;48.61947800;9.05303100;2023-04-19T02:58:25;96435.69;;;6.70;100.00
7824;BME280;3957;48.61947800;9.05303100;2023-04-19T02:59:37;96431.56;;;6.67;100.00
7824;BME280;3957;48.61947800;9.05303100;2023-04-19T03:00:39;96428.75;;;6.69;100.00
7824;BME280;3957;48.61947800;9.05303100;2023-04-19T03:01:45;96432.72;;;6.73;100.00
7824;BME280;3957;48.61947800;9.05303100;2023-04-19T03:02:47;96431.06;;;6.72;100.00
7824;BME280;3957;48.61947800;9.05303100;2023-04-19T03:03:48;96433.34;;;6.75;100.00
7824;BME280;3957;48.61947800;9.05303100;2023-04-19T03:04:51;96429.72;;;6.76;100.00
7824;BME280;3957;48.61947800;9.05303100;2023-04-19T03:05:54;96430.06;;;6.73;100.00
7824;BME280;3957;48.61947800;9.05303100;2023-04-19T03:06:56;96425.72;;;6.72;100.00
7824;BME280;3957;48.61947800;9.05303100;2023-04-19T03:07:58;96437.34;;;6.71;100.00
7824;BME280;3957;48.61947800;9.05303100;2023-04-19T03:08:59;96433.88;;;6.70;100.00
7824;BME280;3957;48.61947800;9.05303100;2023-04-19T03:10:01;96425.06;;;6.70;100.00
7824;BME280;3957;48.61947800;9.05303100;2023-04-19T03:11:05;96430.91;;;6.65;100.00
7824;BME280;3957;48.61947800;9.05303100;2023-04-19T03:12:06;96434.53;;;6.64;100.00
7824;BME280;3957;48.61947800;9.05303100;2023-04-19T03:13:08;96432.75;;;6.64;100.00
7824;BME280;3957;48.61947800;9.05303100;2023-04-19T03:14:10;96429.56;;;6.61;100.00
7824;BME280;3957;48.61947800;9.05303100;2023-04-19T03:15:12;96426.91;;;6.61;100.00
7824;BME280;3957;48.61947800;9.05303100;2023-04-19T03:16:13;96427.59;;;6.63;100.00
7824;BME280;3957;48.61947800;9.05303100;2023-04-19T03:17:16;96428.41;;;6.63;100.00
7824;BME280;3957;48.61947800;9.05303100;2023-04-19T03:18:18;96429.06;;;6.66;100.00
7824;BME280;3957;48.61947800;9.05303100;2023-04-19T03:19:20;96427.25;;;6.58;100.00
7824;BME280;3957;48.61947800;9.05303100;2023-04-19T03:20:25;96423.63;;;6.59;100.00
7824;BME280;3957;48.61947800;9.05303100;2023-04-19T03:21:27;96426.75;;;6.54;100.00
7824;BME280;3957;48.61947800;9.05303100;2023-04-19T03:22:29;96426.13;;;6.52;100.00
7824;BME280;3957;48.61947800;9.05303100;2023-04-19T03:23:31;96427.25;;;6.58;100.00
7824;BME280;3957;48.61947800;9.05303100;2023-04-19T03:24:34;96430.44;;;6.53;100.00
7824;BME280;3957;48.61947800;9.05303100;2023-04-19T03:25:55;96426.78;;;6.46;100.00
7824;BME280;3957;48.61947800;9.05303100;2023-04-19T03:27:17;96426.13;;;6.44;100.00
7824;BME280;3957;48.61947800;9.05303100;2023-04-19T03:28:22;96428.13;;;6.42;100.00
7824;BME280;3957;48.61947800;9.05303100;2023-04-19T03:29:44;96427.13;;;6.35;100.00
7824;BME280;3957;48.61947800;9.05303100;2023-04-19T03:30:49;96425.31;;;6.35;100.00
7824;BME280;3957;48.61947800;9.05303100;2023-04-19T03:31:50;96427.13;;;6.43;100.00
7824;BME280;3957;48.61947800;9.05303100;2023-04-19T03:32:52;96425.63;;;6.40;100.00
7824;BME280;3957;48.61947800;9.05303100;2023-04-19T03:33:54;96423.16;;;6.39;100.00
7824;BME280;3957;48.61947800;9.05303100;2023-04-19T03:35:01;96423.50;;;6.36;100.00
7824;BME280;3957;48.61947800;9.05303100;2023-04-19T03:36:04;96427.13;;;6.35;100.00
7824;BME280;3957;48.61947800;9.05303100;2023-04-19T03:37:06;96426.81;;;6.38;100.00
7824;BME280;3957;48.61947800;9.05303100;2023-04-19T03:38:07;96424.31;;;6.44;100.00
7824;BME280;3957;48.61947800;9.05303100;2023-04-19T03:39:09;96430.59;;;6.43;100.00
7824;BME280;3957;48.61947800;9.05303100;2023-04-19T03:40:13;96426.13;;;6.52;100.00
7824;BME280;3957;48.61947800;9.05303100;2023-04-19T03:41:22;96435.91;;;6.52;100.00
7824;BME280;3957;48.61947800;9.05303100;2023-04-19T03:42:32;96423.63;;;6.51;100.00
7824;BME280;3957;48.61947800;9.05303100;2023-04-19T03:43:39;96423.63;;;6.51;100.00
7824;BME280;3957;48.61947800;9.05303100;2023-04-19T03:44:41;96422.13;;;6.56;100.00
7824;BME280;3957;48.61947800;9.05303100;2023-04-19T03:45:43;96415.66;;;6.51;100.00
7824;BME280;3957;48.61947800;9.05303100;2023-04-19T03:46:46;96417.28;;;6.52;100.00
7824;BME280;3957;48.61947800;9.05303100;2023-04-19T03:47:52;96413.00;;;6.51;100.00
7824;BME280;3957;48.61947800;9.05303100;2023-04-19T03:48:54;96418.16;;;6.52;100.00
7824;BME280;3957;48.61947800;9.05303100;2023-04-19T03:49:57;96420.16;;;6.42;100.00
7824;BME280;3957;48.61947800;9.05303100;2023-04-19T03:51:00;96412.50;;;6.47;100.00
7824;BME280;3957;48.61947800;9.05303100;2023-04-19T03:52:02;96415.66;;;6.51;100.00
7824;BME280;3957;48.61947800;9.05303100;2023-04-19T03:53:04;96419.66;;;6.46;100.00
7824;BME280;3957;48.61947800;9.05303100;2023-04-19T03:54:06;96411.69;;;6.46;100.00
7824;BME280;3957;48.61947800;9.05303100;2023-04-19T03:55:08;96410.84;;;6.46;100.00
7824;BME280;3957;48.61947800;9.05303100;2023-04-19T03:56:13;96415.50;;;6.52;100.00
7824;BME280;3957;48.61947800;9.05303100;2023-04-19T03:57:16;96419.81;;;6.53;100.00
7824;BME280;3957;48.61947800;9.05303100;2023-04-19T03:58:17;96415.97;;;6.56;100.00
7824;BME280;3957;48.61947800;9.05303100;2023-04-19T03:59:31;96413.97;;;6.58;100.00
7824;BME280;3957;48.61947800;9.05303100;2023-04-19T04:00:35;96418.16;;;6.52;100.00
7824;BME280;3957;48.61947800;9.05303100;2023-04-19T04:01:36;96408.50;;;6.51;100.00
7824;BME280;3957;48.61947800;9.05303100;2023-04-19T04:02:42;96413.81;;;6.51;100.00
7824;BME280;3957;48.61947800;9.05303100;2023-04-19T04:03:46;96405.03;;;6.51;100.00
7824;BME280;3957;48.61947800;9.05303100;2023-04-19T04:04:53;96414.16;;;6.48;100.00
7824;BME280;3957;48.61947800;9.05303100;2023-04-19T04:05:56;96402.84;;;6.54;100.00
7824;BME280;3957;48.61947800;9.05303100;2023-04-19T04:06:58;96407.50;;;6.52;100.00
7824;BME280;3957;48.61947800;9.05303100;2023-04-19T04:08:00;96411.97;;;6.52;100.00
7824;BME280;3957;48.61947800;9.05303100;2023-04-19T04:09:01;96413.00;;;6.51;100.00
7824;BME280;3957;48.61947800;9.05303100;2023-04-19T04:10:04;96406.53;;;6.53;100.00
7824;BME280;3957;48.61947800;9.05303100;2023-04-19T04:11:11;96414.81;;;6.50;100.00
7824;BME280;3957;48.61947800;9.05303100;2023-04-19T04:12:13;96411.00;;;6.53;100.00
7824;BME280;3957;48.61947800;9.05303100;2023-04-19T04:13:15;96411.50;;;6.56;100.00
7824;BME280;3957;48.61947800;9.05303100;2023-04-19T04:14:25;96418.78;;;6.54;100.00
7824;BME280;3957;48.61947800;9.05303100;2023-04-19T04:15:27;96409.97;;;6.62;100.00
7824;BME280;3957;48.61947800;9.05303100;2023-04-19T04:16:29;96407.31;;;6.62;100.00
7824;BME280;3957;48.61947800;9.05303100;2023-04-19T04:17:31;96413.63;;;6.61;100.00
7824;BME280;3957;48.61947800;9.05303100;2023-04-19T04:18:33;96414.31;;;6.55;100.00
7824;BME280;3957;48.61947800;9.05303100;2023-04-19T04:19:37;96413.28;;;6.56;100.00
7824;BME280;3957;48.61947800;9.05303100;2023-04-19T04:20:39;96410.16;;;6.52;100.00
7824;BME280;3957;48.61947800;9.05303100;2023-04-19T04:21:44;96411.84;;;6.53;100.00
7824;BME280;3957;48.61947800;9.05303100;2023-04-19T04:22:46;96412.47;;;6.55;100.00
7824;BME280;3957;48.61947800;9.05303100;2023-04-19T04:23:50;96414.16;;;6.56;100.00
7824;BME280;3957;48.61947800;9.05303100;2023-04-19T04:25:14;96413.16;;;6.57;100.00
7824;BME280;3957;48.61947800;9.05303100;2023-04-19T04:26:17;96411.31;;;6.58;100.00
7824;BME280;3957;48.61947800;9.05303100;2023-04-19T04:27:39;96418.31;;;6.51;100.00
7824;BME280;3957;48.61947800;9.05303100;2023-04-19T04:28:46;96417.47;;;6.50;100.00
7824;BME280;3957;48.61947800;9.05303100;2023-04-19T04:29:48;96415.50;;;6.52;100.00
7824;BME280;3957;48.61947800;9.05303100;2023-04-19T04:30:50;96417.97;;;6.54;100.00
7824;BME280;3957;48.61947800;9.05303100;2023-04-19T04:31:52;96412.47;;;6.55;100.00
7824;BME280;3957;48.61947800;9.05303100;2023-04-19T04:32:58;96410.63;;;6.56;100.00
7824;BME280;3957;48.61947800;9.05303100;2023-04-19T04:34:01;96413.28;;;6.56;100.00
7824;BME280;3957;48.61947800;9.05303100;2023-04-19T04:35:06;96411.00;;;6.53;100.00
7824;BME280;3957;48.61947800;9.05303100;2023-04-19T04:36:24;96410.50;;;6.57;100.00
7824;BME280;3957;48.61947800;9.05303100;2023-04-19T04:37:28;96407.16;;;6.55;100.00
7824;BME280;3957;48.61947800;9.05303100;2023-04-19T04:38:32;96409.81;;;6.55;100.00
7824;BME280;3957;48.61947800;9.05303100;2023-04-19T04:39:33;96416.13;;;6.54;100.00
7824;BME280;3957;48.61947800;9.05303100;2023-04-19T04:40:40;96413.66;;;6.53;100.00
7824;BME280;3957;48.61947800;9.05303100;2023-04-19T04:41:42;96409.81;;;6.55;100.00
7824;BME280;3957;48.61947800;9.05303100;2023-04-19T04:42:43;96411.84;;;6.53;100.00
7824;BME280;3957;48.61947800;9.05303100;2023-04-19T04:43:47;96409.47;;;6.58;100.00
7824;BME280;3957;48.61947800;9.05303100;2023-04-19T04:45:10;96414.63;;;6.60;100.00
7824;BME280;3957;48.61947800;9.05303100;2023-04-19T04:46:13;96407.78;;;6.66;100.00
7824;BME280;3957;48.61947800;9.05303100;2023-04-19T04:47:16;96411.13;;;6.59;100.00
7824;BME280;3957;48.61947800;9.05303100;2023-04-19T04:48:25;96419.44;;;6.64;100.00
7824;BME280;3957;48.61947800;9.05303100;2023-04-19T04:49:26;96415.44;;;6.69;100.00
7824;BME280;3957;48.61947800;9.05303100;2023-04-19T04:50:28;96415.44;;;6.69;100.00
7824;BME280;3957;48.61947800;9.05303100;2023-04-19T04:51:29;96415.75;;;6.66;100.00
7824;BME280;3957;48.61947800;9.05303100;2023-04-19T04:52:33;96413.44;;;6.71;100.00
7824;BME280;3957;48.61947800;9.05303100;2023-04-19T04:53:42;96410.41;;;6.74;100.00
7824;BME280;3957;48.61947800;9.05303100;2023-04-19T04:54:44;96414.56;;;6.76;100.00
7824;BME280;3957;48.61947800;9.05303100;2023-04-19T04:55:54;96410.41;;;6.74;100.00
7824;BME280;3957;48.61947800;9.05303100;2023-04-19T04:56:57;96414.38;;;6.86;100.00
7824;BME280;3957;48.61947800;9.05303100;2023-04-19T04:57:59;96408.91;;;6.88;100.00
7824;BME280;3957;48.61947800;9.05303100;2023-04-19T04:59:11;96419.66;;;6.94;100.00
7824;BME280;3957;48.61947800;9.05303100;2023-04-19T05:00:16;96414.81;;;6.98;100.00
7824;BME280;3957;48.61947800;9.05303100;2023-04-19T05:01:31;96415.47;;;7.00;100.00